createdAt,value
2016-05-24T00:00:16.545Z,987.38
2016-05-24T00:01:16.562Z,987.38
2016-05-24T00:02:16.582Z,987.4
2016-05-24T00:03:16.568Z,987.39
2016-05-24T00:04:16.587Z,987.42
2016-05-24T00:05:16.604Z,987.4
2016-05-24T00:06:16.811Z,987.42
2016-05-24T00:07:16.609Z,987.42
2016-05-24T00:08:16.612Z,987.4
2016-05-24T00:09:16.615Z,987.4
2016-05-24T00:10:16.634Z,987.4
2016-05-24T00:11:16.683Z,987.4
2016-05-24T00:12:16.670Z,987.39
2016-05-24T00:13:16.892Z,987.38
2016-05-24T00:14:17.019Z,987.38
2016-05-24T00:15:16.694Z,987.44
2016-05-24T00:17:16.919Z,987.44
2016-05-24T00:18:16.702Z,987.43
2016-05-24T00:19:16.736Z,987.43
2016-05-24T00:20:16.724Z,987.42
2016-05-24T00:21:16.727Z,987.43
2016-05-24T00:23:16.747Z,987.36
2016-05-24T00:24:16.796Z,987.35
2016-05-24T00:25:16.768Z,987.33
2016-05-24T00:26:16.785Z,987.29
2016-05-24T00:27:16.789Z,987.27
2016-05-24T00:28:16.791Z,987.26
2016-05-24T00:29:16.794Z,987.27
2016-05-24T00:30:16.828Z,987.27
2016-05-24T00:31:16.800Z,987.24
2016-05-24T00:32:16.818Z,987.21
2016-05-24T00:33:16.821Z,987.17
2016-05-24T00:34:16.839Z,987.13
2016-05-24T00:35:16.842Z,987.1
2016-05-24T00:36:16.844Z,987.03
2016-05-24T00:37:16.862Z,987.01
2016-05-24T00:38:16.881Z,987.02
2016-05-24T00:39:17.071Z,986.97
2016-05-24T00:40:17.137Z,986.93
2016-05-24T00:41:17.108Z,986.94
2016-05-24T00:42:17.111Z,986.95
2016-05-24T00:43:17.113Z,986.98
2016-05-24T00:44:17.569Z,986.93
2016-05-24T00:46:16.934Z,986.94
2016-05-24T00:47:16.983Z,986.99
2016-05-24T00:48:17.174Z,986.95
2016-05-24T00:49:16.989Z,986.93
2016-05-24T00:50:16.961Z,986.91
2016-05-24T00:51:16.994Z,986.91
2016-05-24T00:52:16.997Z,986.92
2016-05-24T00:53:17.015Z,986.94
2016-05-24T00:54:17.018Z,986.97
2016-05-24T00:55:17.021Z,986.97
2016-05-24T00:56:17.039Z,986.97
2016-05-24T00:57:17.026Z,986.98
2016-05-24T00:58:17.044Z,986.97
2016-05-24T00:59:17.046Z,986.96
2016-05-24T01:00:17.076Z,986.99
2016-05-24T01:01:17.107Z,986.97
2016-05-24T01:02:17.154Z,986.97
2016-05-24T01:03:17.186Z,986.99
2016-05-24T01:04:17.231Z,986.97
2016-05-24T01:05:17.255Z,986.96
2016-05-24T01:06:17.268Z,987.01
2016-05-24T01:07:17.280Z,987
2016-05-24T01:08:17.294Z,986.97
2016-05-24T01:09:17.557Z,986.98
2016-05-24T01:10:17.567Z,986.97
2016-05-24T01:11:17.558Z,986.97
2016-05-24T01:12:17.377Z,986.95
2016-05-24T01:13:17.383Z,986.9
2016-05-24T01:14:17.406Z,986.96
2016-05-24T01:15:17.396Z,986.91
2016-05-24T01:16:17.399Z,986.94
2016-05-24T01:17:17.450Z,986.95
2016-05-24T01:18:17.423Z,986.97
2016-05-24T01:19:17.457Z,986.97
2016-05-24T01:20:17.445Z,986.99
2016-05-24T01:21:17.465Z,987.01
2016-05-24T01:22:17.483Z,986.99
2016-05-24T01:23:17.705Z,986.98
2016-05-24T01:24:17.489Z,986.99
2016-05-24T01:25:17.493Z,986.99
2016-05-24T01:26:17.495Z,986.93
2016-05-24T01:27:17.514Z,986.95
2016-05-24T01:28:17.516Z,986.94
2016-05-24T01:29:17.926Z,986.93
2016-05-24T01:30:17.772Z,986.97
2016-05-24T01:31:17.557Z,986.96
2016-05-24T01:32:17.560Z,986.94
2016-05-24T01:33:17.594Z,986.95
2016-05-24T01:34:17.596Z,986.92
2016-05-24T01:35:17.599Z,986.93
2016-05-24T01:36:17.585Z,986.91
2016-05-24T01:37:17.605Z,986.92
2016-05-24T01:38:17.608Z,986.91
2016-05-24T01:39:17.610Z,986.93
2016-05-24T01:40:17.628Z,986.88
2016-05-24T01:41:17.662Z,986.9
2016-05-24T01:42:17.836Z,986.87
2016-05-24T01:43:17.651Z,986.84
2016-05-24T01:44:17.858Z,986.83
2016-05-24T01:45:17.673Z,986.85
2016-05-24T01:46:17.691Z,986.84
2016-05-24T01:47:17.678Z,986.79
2016-05-24T01:48:17.696Z,986.84
2016-05-24T01:50:17.702Z,986.86
2016-05-24T01:51:17.720Z,986.85
2016-05-24T01:52:17.723Z,986.9
2016-05-24T01:53:17.740Z,986.9
2016-05-24T01:54:17.775Z,986.92
2016-05-24T01:55:17.746Z,986.95
2016-05-24T01:56:17.796Z,987.02
2016-05-24T01:57:17.798Z,986.97
2016-05-24T01:58:17.817Z,987.01
2016-05-24T01:59:17.789Z,987
2016-05-24T02:00:17.792Z,987.01
2016-05-24T02:01:17.809Z,987.01
2016-05-24T02:02:17.828Z,987.01
2016-05-24T02:03:17.846Z,986.98
2016-05-24T02:04:17.833Z,986.98
2016-05-24T02:05:17.851Z,986.95
2016-05-24T02:06:17.855Z,986.95
2016-05-24T02:07:17.858Z,986.93
2016-05-24T02:08:17.860Z,986.94
2016-05-24T02:09:18.080Z,986.92
2016-05-24T02:10:18.302Z,986.97
2016-05-24T02:11:17.899Z,986.96
2016-05-24T02:12:17.902Z,986.94
2016-05-24T02:13:18.124Z,986.9
2016-05-24T02:14:18.141Z,986.9
2016-05-24T02:15:17.957Z,986.91
2016-05-24T02:16:17.943Z,986.9
2016-05-24T02:17:17.946Z,986.87
2016-05-24T02:18:17.965Z,986.89
2016-05-24T02:20:18.002Z,986.98
2016-05-24T02:22:17.990Z,986.95
2016-05-24T02:23:18.009Z,986.96
2016-05-24T02:24:18.012Z,986.96
2016-05-24T02:25:18.015Z,986.91
2016-05-24T02:26:18.033Z,986.95
2016-05-24T02:27:18.051Z,986.89
2016-05-24T02:28:18.039Z,986.87
2016-05-24T02:29:18.057Z,986.82
2016-05-24T02:30:18.247Z,986.79
2016-05-24T02:31:18.062Z,986.78
2016-05-24T02:32:18.064Z,986.78
2016-05-24T02:33:18.083Z,986.74
2016-05-24T02:35:18.104Z,986.79
2016-05-24T02:36:18.138Z,986.8
2016-05-24T02:37:18.125Z,986.79
2016-05-24T02:38:18.127Z,986.82
2016-05-24T02:39:18.130Z,986.83
2016-05-24T02:40:18.164Z,986.81
2016-05-24T02:41:18.152Z,986.8
2016-05-24T02:42:18.389Z,986.82
2016-05-24T02:43:18.188Z,986.82
2016-05-24T02:44:18.409Z,986.81
2016-05-24T02:45:18.193Z,986.85
2016-05-24T02:46:18.196Z,986.89
2016-05-24T02:47:18.621Z,986.87
2016-05-24T02:48:18.218Z,986.93
2016-05-24T02:49:18.220Z,986.95
2016-05-24T02:50:18.238Z,986.97
2016-05-24T02:51:18.240Z,986.99
2016-05-24T02:52:18.462Z,986.98
2016-05-24T02:53:18.324Z,986.98
2016-05-24T02:54:18.468Z,986.98
2016-05-24T02:55:18.470Z,986.98
2016-05-24T02:56:18.285Z,986.96
2016-05-24T02:57:18.288Z,987.01
2016-05-24T02:58:18.338Z,986.97
2016-05-24T02:59:18.340Z,987.04
2016-05-24T03:01:18.330Z,987.06
2016-05-24T03:02:18.348Z,987.08
2016-05-24T03:03:18.539Z,987.05
2016-05-24T03:04:18.370Z,987.06
2016-05-24T03:05:18.372Z,987.08
2016-05-24T03:06:18.422Z,987.05
2016-05-24T03:07:18.378Z,987.1
2016-05-24T03:08:18.411Z,987.08
2016-05-24T03:09:18.414Z,987.11
2016-05-24T03:10:18.402Z,987.12
2016-05-24T03:11:18.404Z,987.12
2016-05-24T03:12:18.422Z,987.16
2016-05-24T03:13:18.424Z,987.12
2016-05-24T03:14:18.443Z,987.15
2016-05-24T03:15:18.446Z,987.14
2016-05-24T03:16:18.918Z,987.14
2016-05-24T03:17:18.467Z,987.11
2016-05-24T03:18:18.469Z,987.13
2016-05-24T03:19:18.690Z,987.07
2016-05-24T03:20:18.521Z,987.12
2016-05-24T03:21:18.556Z,987.1
2016-05-24T03:23:18.515Z,987.07
2016-05-24T03:24:18.735Z,987.09
2016-05-24T03:25:18.551Z,987.03
2016-05-24T03:26:18.554Z,987.1
2016-05-24T03:27:18.556Z,987.09
2016-05-24T03:28:18.559Z,987.06
2016-05-24T03:29:18.828Z,987.1
2016-05-24T03:30:18.580Z,987.11
2016-05-24T03:31:18.598Z,987.11
2016-05-24T03:32:18.601Z,987.11
2016-05-24T03:33:18.806Z,987.13
2016-05-24T03:34:18.606Z,987.17
2016-05-24T03:35:18.828Z,987.15
2016-05-24T03:36:18.627Z,987.12
2016-05-24T03:37:18.646Z,987.15
2016-05-24T03:38:18.648Z,987.1
2016-05-24T03:39:18.683Z,987.11
2016-05-24T03:41:18.703Z,987.12
2016-05-24T03:42:18.705Z,987.12
2016-05-24T03:43:18.912Z,987.16
2016-05-24T03:44:18.914Z,987.17
2016-05-24T03:45:18.730Z,987.13
2016-05-24T03:46:18.732Z,987.14
2016-05-24T03:47:18.766Z,987.17
2016-05-24T03:48:18.737Z,987.14
2016-05-24T03:49:18.757Z,987.18
2016-05-24T03:50:18.759Z,987.2
2016-05-24T03:51:18.762Z,987.16
2016-05-24T03:52:18.779Z,987.19
2016-05-24T03:53:18.783Z,987.21
2016-05-24T03:54:18.785Z,987.21
2016-05-24T03:55:18.788Z,987.22
2016-05-24T03:56:18.806Z,987.17
2016-05-24T03:57:18.824Z,987.1
2016-05-24T03:58:18.827Z,987.13
2016-05-24T03:59:18.829Z,987.11
2016-05-24T04:00:19.489Z,987.1
2016-05-24T04:01:18.851Z,987.09
2016-05-24T04:02:18.853Z,987.12
2016-05-24T04:03:18.872Z,987.06
2016-05-24T04:04:18.875Z,987.04
2016-05-24T04:05:18.893Z,987.12
2016-05-24T04:06:18.895Z,987.13
2016-05-24T04:07:18.914Z,987.15
2016-05-24T04:08:18.916Z,987.13
2016-05-24T04:09:18.935Z,987.14
2016-05-24T04:10:19.125Z,987.12
2016-05-24T04:11:18.956Z,987.15
2016-05-24T04:12:18.943Z,987.17
2016-05-24T04:13:18.961Z,987.16
2016-05-24T04:14:18.979Z,987.14
2016-05-24T04:15:19.216Z,987.14
2016-05-24T04:16:19.017Z,987.16
2016-05-24T04:18:19.006Z,987.16
2016-05-24T04:19:19.024Z,987.16
2016-05-24T04:20:19.026Z,987.2
2016-05-24T04:21:19.046Z,987.18
2016-05-24T04:22:19.048Z,987.2
2016-05-24T04:23:19.254Z,987.2
2016-05-24T04:24:19.069Z,987.25
2016-05-24T04:25:19.071Z,987.21
2016-05-24T04:26:19.074Z,987.23
2016-05-24T04:27:19.092Z,987.25
2016-05-24T04:28:19.096Z,987.25
2016-05-24T04:29:19.098Z,987.23
2016-05-24T04:30:19.148Z,987.23
2016-05-24T04:31:19.134Z,987.21
2016-05-24T04:32:19.137Z,987.24
2016-05-24T04:33:19.140Z,987.21
2016-05-24T04:34:19.159Z,987.21
2016-05-24T04:35:19.364Z,987.2
2016-05-24T04:36:19.179Z,987.25
2016-05-24T04:37:19.385Z,987.26
2016-05-24T04:38:19.184Z,987.2
2016-05-24T04:39:19.187Z,987.28
2016-05-24T04:40:19.206Z,987.23
2016-05-24T04:41:19.224Z,987.26
2016-05-24T04:42:19.430Z,987.26
2016-05-24T04:43:19.229Z,987.25
2016-05-24T04:44:19.483Z,987.24
2016-05-24T04:45:19.485Z,987.26
2016-05-24T04:48:19.290Z,987.31
2016-05-24T04:49:19.495Z,987.28
2016-05-24T04:51:19.330Z,987.25
2016-05-24T04:52:19.316Z,987.25
2016-05-24T04:53:19.334Z,987.17
2016-05-24T04:54:19.352Z,987.18
2016-05-24T04:55:19.355Z,987.18
2016-05-24T04:56:19.358Z,987.17
2016-05-24T04:57:19.361Z,987.22
2016-05-24T04:58:19.613Z,987.2
2016-05-24T04:59:19.381Z,987.23
2016-05-24T05:00:19.401Z,987.25
2016-05-24T05:01:19.403Z,987.26
2016-05-24T05:02:19.421Z,987.24
2016-05-24T05:03:19.424Z,987.27
2016-05-24T05:04:19.442Z,987.26
2016-05-24T05:05:19.445Z,987.29
2016-05-24T05:06:19.463Z,987.31
2016-05-24T05:07:19.466Z,987.3
2016-05-24T05:08:19.484Z,987.27
2016-05-24T05:09:19.487Z,987.26
2016-05-24T05:10:19.489Z,987.26
2016-05-24T05:11:19.727Z,987.24
2016-05-24T05:12:19.526Z,987.25
2016-05-24T05:13:19.529Z,987.25
2016-05-24T05:14:19.735Z,987.23
2016-05-24T05:15:19.941Z,987.25
2016-05-24T05:16:19.583Z,987.25
2016-05-24T05:17:19.586Z,987.22
2016-05-24T05:18:19.589Z,987.25
2016-05-24T05:19:19.592Z,987.27
2016-05-24T05:20:19.594Z,987.35
2016-05-24T05:21:19.613Z,987.31
2016-05-24T05:22:19.632Z,987.35
2016-05-24T05:23:19.635Z,987.35
2016-05-24T05:24:19.854Z,987.33
2016-05-24T05:25:19.655Z,987.34
2016-05-24T05:26:20.111Z,987.36
2016-05-24T05:27:19.676Z,987.39
2016-05-24T05:28:19.709Z,987.42
2016-05-24T05:29:19.696Z,987.43
2016-05-24T05:30:19.715Z,987.45
2016-05-24T05:31:19.734Z,987.47
2016-05-24T05:33:19.958Z,987.43
2016-05-24T05:34:19.773Z,987.41
2016-05-24T05:35:19.759Z,987.39
2016-05-24T05:36:19.779Z,987.35
2016-05-24T05:37:19.781Z,987.39
2016-05-24T05:38:20.033Z,987.35
2016-05-24T05:39:19.833Z,987.29
2016-05-24T05:40:19.836Z,987.31
2016-05-24T05:41:19.839Z,987.3
2016-05-24T05:42:19.841Z,987.27
2016-05-24T05:43:19.875Z,987.28
2016-05-24T05:44:19.862Z,987.22
2016-05-24T05:45:19.880Z,987.25
2016-05-24T05:46:19.883Z,987.24
2016-05-24T05:47:19.901Z,987.23
2016-05-24T05:48:20.107Z,987.26
2016-05-24T05:49:19.923Z,987.26
2016-05-24T05:50:19.925Z,987.25
2016-05-24T05:51:19.944Z,987.27
2016-05-24T05:52:19.946Z,987.28
2016-05-24T05:53:19.965Z,987.31
2016-05-24T05:54:20.217Z,987.32
2016-05-24T05:55:20.251Z,987.3
2016-05-24T05:56:20.191Z,987.33
2016-05-24T05:57:20.038Z,987.34
2016-05-24T05:58:20.024Z,987.37
2016-05-24T05:59:20.059Z,987.36
2016-05-24T06:00:20.062Z,987.4
2016-05-24T06:01:20.064Z,987.41
2016-05-24T06:02:20.067Z,987.46
2016-05-24T06:03:20.084Z,987.5
2016-05-24T06:04:20.088Z,987.51
2016-05-24T06:05:20.309Z,987.5
2016-05-24T06:06:20.328Z,987.53
2016-05-24T06:07:20.158Z,987.5
2016-05-24T06:08:20.145Z,987.49
2016-05-24T06:09:20.147Z,987.45
2016-05-24T07:13:14.662Z,987.99
2016-05-24T07:14:14.696Z,988.04
2016-05-24T07:15:14.683Z,988.02
2016-05-24T07:16:14.731Z,988.03
2016-05-24T07:17:14.719Z,988.02
2016-05-24T07:18:14.737Z,988.03
2016-05-24T07:20:14.914Z,987.97
2016-05-24T07:21:14.761Z,987.93
2016-05-24T07:22:14.795Z,988.02
2016-05-24T07:23:14.938Z,988
2016-05-24T07:24:14.925Z,988.03
2016-05-24T07:25:15.178Z,988.04
2016-05-24T07:26:14.853Z,988.08
2016-05-24T07:27:15.011Z,988.11
2016-05-24T07:28:14.952Z,988.06
2016-05-24T07:29:15.064Z,987.99
2016-05-24T07:30:14.910Z,987.97
2016-05-24T07:31:14.960Z,987.91
2016-05-24T07:32:14.962Z,987.9
2016-05-24T07:33:14.996Z,987.83
2016-05-24T07:34:15.468Z,987.81
2016-05-24T07:35:14.987Z,987.79
2016-05-24T07:36:15.176Z,987.86
2016-05-24T07:37:15.117Z,987.92
2016-05-24T07:38:15.041Z,987.98
2016-05-24T07:39:15.107Z,988.01
2016-05-24T07:40:15.078Z,988.02
2016-05-24T07:41:15.174Z,988.05
2016-05-24T07:42:15.036Z,988.04
2016-05-24T07:43:15.242Z,988.05
2016-05-24T07:44:15.151Z,987.97
2016-05-24T07:45:15.309Z,987.97
2016-05-24T07:46:15.095Z,988
2016-05-24T07:47:15.175Z,988.06
2016-05-24T07:48:15.161Z,988.05
2016-05-24T07:49:15.196Z,988.07
2016-05-24T07:50:15.308Z,988.06
2016-05-24T07:51:15.530Z,988.05
2016-05-24T07:52:15.314Z,988.13
2016-05-24T07:53:15.206Z,988.09
2016-05-24T07:54:15.319Z,988.07
2016-05-24T07:55:15.211Z,987.99
2016-05-24T07:56:15.277Z,987.92
2016-05-24T07:57:15.233Z,987.81
2016-05-24T07:58:15.236Z,987.75
2016-05-24T07:59:15.457Z,987.83
2016-05-24T08:00:15.616Z,987.85
2016-05-24T08:01:15.306Z,987.88
2016-05-24T08:02:15.480Z,987.91
2016-05-24T08:04:15.330Z,988.05
2016-05-24T08:05:16.224Z,988.03
2016-05-24T08:06:15.351Z,988.14
2016-05-24T08:07:15.369Z,988.22
2016-05-24T08:08:15.371Z,988.21
2016-05-24T08:09:15.390Z,988.27
2016-05-24T08:10:15.440Z,988.28
2016-05-24T08:11:15.584Z,988.17
2016-05-24T08:12:15.664Z,988.09
2016-05-24T08:13:15.464Z,988.05
2016-05-24T08:14:15.467Z,988.12
2016-05-24T08:15:16.015Z,988.14
2016-05-24T08:16:15.518Z,988.08
2016-05-24T08:17:15.521Z,988.17
2016-05-24T08:18:15.603Z,988.14
2016-05-24T08:19:15.808Z,988.2
2016-05-24T08:20:15.732Z,988.27
2016-05-24T08:21:15.563Z,988.28
2016-05-24T08:22:15.785Z,988.33
2016-05-24T08:23:15.584Z,988.35
2016-05-24T08:24:15.697Z,988.25
2016-05-24T08:25:15.606Z,988.2
2016-05-24T08:27:15.641Z,988.34
2016-05-24T08:28:15.675Z,988.32
2016-05-24T08:29:15.678Z,988.31
2016-05-24T08:30:15.900Z,988.35
2016-05-24T08:31:15.699Z,988.39
2016-05-24T08:32:15.718Z,988.34
2016-05-24T08:33:15.861Z,988.24
2016-05-24T08:34:15.754Z,988.22
2016-05-24T08:35:16.694Z,988.22
2016-05-24T08:36:15.963Z,988.24
2016-05-24T08:38:15.796Z,988.27
2016-05-24T08:39:15.799Z,988.31
2016-05-24T08:40:15.817Z,988.34
2016-05-24T08:41:15.898Z,988.35
2016-05-24T08:42:15.854Z,988.4
2016-05-24T08:44:16.094Z,988.25
2016-05-24T08:45:16.003Z,988.27
2016-05-24T08:46:15.896Z,988.27
2016-05-24T08:47:15.914Z,988.31
2016-05-24T08:48:16.183Z,988.27
2016-05-24T08:49:15.966Z,988.26
2016-05-24T08:50:16.016Z,988.35
2016-05-24T08:51:15.973Z,988.34
2016-05-24T08:52:16.006Z,988.37
2016-05-24T08:53:16.024Z,988.41
2016-05-24T08:54:16.011Z,988.5
2016-05-24T08:55:16.092Z,988.51
2016-05-24T08:56:16.297Z,988.54
2016-05-24T08:57:16.254Z,988.57
2016-05-24T08:58:16.085Z,988.5
2016-05-24T08:59:16.088Z,988.49
2016-05-24T09:00:17.965Z,988.48
2016-05-24T09:02:16.127Z,988.53
2016-05-24T09:03:16.144Z,988.58
2016-05-24T09:04:16.148Z,988.63
2016-05-24T09:05:16.479Z,988.69
2016-05-24T09:06:16.168Z,988.68
2016-05-24T09:07:16.187Z,988.74
2016-05-24T09:08:16.237Z,988.66
2016-05-24T09:09:16.224Z,988.59
2016-05-24T09:10:17.898Z,988.6
2016-05-24T09:11:16.245Z,988.53
2016-05-24T09:12:16.263Z,988.58
2016-05-24T09:13:16.282Z,988.59
2016-05-24T09:14:16.299Z,988.59
2016-05-24T09:15:16.474Z,988.64
2016-05-24T09:16:16.321Z,988.61
2016-05-24T09:17:16.339Z,988.73
2016-05-24T09:18:16.357Z,988.76
2016-05-24T09:19:16.375Z,988.71
2016-05-24T09:20:16.769Z,988.7
2016-05-24T09:21:16.475Z,988.73
2016-05-24T09:22:16.446Z,988.67
2016-05-24T09:23:16.433Z,988.73
2016-05-24T09:24:16.451Z,988.77
2016-05-24T09:25:17.392Z,988.8
2016-05-24T09:26:16.473Z,988.8
2016-05-24T09:27:16.491Z,988.83
2016-05-24T09:28:16.836Z,988.87
2016-05-24T09:29:16.715Z,988.84
2016-05-24T09:30:17.436Z,988.84
2016-05-24T09:31:16.674Z,988.89
2016-05-24T09:32:16.895Z,988.83
2016-05-24T09:33:16.585Z,988.76
2016-05-24T09:34:16.822Z,988.74
2016-05-24T09:35:17.419Z,988.75
2016-05-24T09:37:16.845Z,988.64
2016-05-24T09:38:16.661Z,988.65
2016-05-24T09:39:16.663Z,988.7
2016-05-24T09:40:16.698Z,988.7
2016-05-24T09:41:16.919Z,988.72
2016-05-24T09:42:16.968Z,988.74
2016-05-24T09:43:16.737Z,988.68
2016-05-24T09:44:16.755Z,988.7
2016-05-24T09:45:17.023Z,988.73
2016-05-24T09:46:16.964Z,988.72
2016-05-24T09:47:16.794Z,988.75
2016-05-24T09:48:17.126Z,988.76
2016-05-24T09:49:16.848Z,988.76
2016-05-24T09:50:17.208Z,988.82
2016-05-24T09:51:17.009Z,988.78
2016-05-24T09:52:16.870Z,988.81
2016-05-24T09:53:16.873Z,988.81
2016-05-24T09:54:17.032Z,988.7
2016-05-24T09:55:17.253Z,988.66
2016-05-24T09:56:17.100Z,988.65
2016-05-24T09:57:16.947Z,988.63
2016-05-24T09:58:16.949Z,988.58
2016-05-24T09:59:16.983Z,988.64
2016-05-24T10:00:18.892Z,988.67
2016-05-24T10:01:17.317Z,988.67
2016-05-24T10:02:17.053Z,988.69
2016-05-24T10:03:17.041Z,988.72
2016-05-24T10:04:17.153Z,988.73
2016-05-24T10:05:18.046Z,988.77
2016-05-24T10:06:17.079Z,988.76
2016-05-24T10:07:17.096Z,988.73
2016-05-24T10:08:17.152Z,988.76
2016-05-24T10:09:17.411Z,988.73
2016-05-24T10:10:17.451Z,988.73
2016-05-24T10:11:17.336Z,988.67
2016-05-24T10:12:17.288Z,988.67
2016-05-24T10:13:17.393Z,988.69
2016-05-24T10:14:17.529Z,988.74
2016-05-24T10:15:17.555Z,988.77
2016-05-24T10:17:17.495Z,988.83
2016-05-24T10:18:17.689Z,988.87
2016-05-24T10:19:17.631Z,988.89
2016-05-24T10:20:17.918Z,988.93
2016-05-24T10:21:17.471Z,988.94
2016-05-24T10:22:17.818Z,988.94
2016-05-24T10:23:17.525Z,988.92
2016-05-24T10:24:17.529Z,988.92
2016-05-24T10:25:19.564Z,988.93
2016-05-24T10:26:17.536Z,988.86
2016-05-24T10:28:17.575Z,988.73
2016-05-24T10:29:17.843Z,988.7
2016-05-24T10:30:17.878Z,988.7
2016-05-24T10:31:17.631Z,988.73
2016-05-24T10:32:17.649Z,988.79
2016-05-24T10:33:17.715Z,988.85
2016-05-24T10:34:17.670Z,988.88
2016-05-24T10:35:19.220Z,988.97
2016-05-24T10:36:17.706Z,989.03
2016-05-24T10:37:17.772Z,989.07
2016-05-24T10:38:17.728Z,989.11
2016-05-24T10:39:17.746Z,989.08
2016-05-24T10:40:18.123Z,989.13
2016-05-24T10:41:17.908Z,989.16
2016-05-24T10:42:17.957Z,989.08
2016-05-24T10:43:17.803Z,989.13
2016-05-24T10:44:18.259Z,989.12
2016-05-24T10:45:17.856Z,989.03
2016-05-24T10:46:18.108Z,989
2016-05-24T10:47:17.861Z,989.06
2016-05-24T10:48:17.880Z,989.05
2016-05-24T10:49:18.101Z,989.11
2016-05-24T10:50:18.150Z,989.14
2016-05-24T10:51:17.935Z,989.19
2016-05-24T10:52:17.938Z,989.18
2016-05-24T10:53:17.971Z,989.17
2016-05-24T10:54:18.021Z,989.2
2016-05-24T10:55:17.976Z,989.18
2016-05-24T10:56:18.041Z,989.19
2016-05-24T10:58:18.344Z,989.14
2016-05-24T10:59:18.049Z,989.12
2016-05-24T11:00:19.662Z,989.21
2016-05-24T11:01:18.070Z,989.19
2016-05-24T11:02:18.886Z,989.26
2016-05-24T11:03:18.170Z,989.28
2016-05-24T11:04:18.126Z,989.31
2016-05-24T11:05:18.957Z,989.26
2016-05-24T11:06:18.162Z,989.27
2016-05-24T11:07:18.399Z,989.25
2016-05-24T11:08:18.402Z,989.18
2016-05-24T11:09:18.295Z,989.1
2016-05-24T11:10:18.251Z,989.1
2016-05-24T11:11:18.254Z,989
2016-05-24T11:12:18.459Z,988.97
2016-05-24T11:13:18.275Z,988.97
2016-05-24T11:14:18.574Z,989.03
2016-05-24T11:15:18.593Z,989.12
2016-05-24T11:17:18.332Z,989.24
2016-05-24T11:18:18.445Z,989.26
2016-05-24T11:19:18.416Z,989.22
2016-05-24T11:20:18.481Z,989.15
2016-05-24T11:22:18.408Z,988.84
2016-05-24T11:23:18.646Z,988.93
2016-05-24T11:24:18.711Z,988.83
2016-05-24T11:25:18.526Z,988.8
2016-05-24T11:26:18.513Z,988.78
2016-05-24T11:27:18.516Z,988.73
2016-05-24T11:28:18.534Z,988.72
2016-05-24T11:29:18.521Z,988.7
2016-05-24T11:30:18.946Z,988.7
2016-05-24T11:31:18.558Z,988.75
2016-05-24T11:32:18.779Z,988.74
2016-05-24T11:33:18.673Z,988.73
2016-05-24T11:34:18.613Z,988.74
2016-05-24T11:35:18.694Z,988.75
2016-05-24T11:36:18.634Z,988.76
2016-05-24T11:37:18.651Z,988.73
2016-05-24T11:38:18.717Z,988.79
2016-05-24T11:39:18.704Z,988.83
2016-05-24T11:40:18.910Z,988.79
2016-05-24T11:41:18.725Z,988.74
2016-05-24T11:42:18.728Z,988.79
2016-05-24T11:43:18.746Z,988.83
2016-05-24T11:44:18.748Z,988.81
2016-05-24T11:45:18.830Z,988.84
2016-05-24T11:46:19.019Z,988.86
2016-05-24T11:47:19.006Z,988.93
2016-05-24T11:48:19.244Z,988.95
2016-05-24T11:49:18.825Z,988.98
2016-05-24T11:50:18.844Z,988.98
2016-05-24T11:51:18.862Z,988.91
2016-05-24T11:52:18.894Z,988.84
2016-05-24T11:53:19.320Z,988.79
2016-05-24T11:54:18.901Z,988.79
2016-05-24T11:55:18.919Z,988.78
2016-05-24T11:56:19.000Z,988.8
2016-05-24T11:57:19.158Z,988.79
2016-05-24T11:58:19.161Z,988.8
2016-05-24T11:59:18.977Z,988.77
2016-05-24T12:00:19.323Z,988.84
2016-05-24T12:02:19.094Z,988.88
2016-05-24T12:03:19.049Z,988.89
2016-05-24T12:04:19.115Z,988.87
2016-05-24T12:05:19.102Z,988.84
2016-05-24T12:06:19.105Z,988.85
2016-05-24T12:07:19.248Z,988.81
2016-05-24T12:09:19.238Z,988.86
2016-05-24T12:10:19.351Z,988.76
2016-05-24T12:11:19.321Z,988.77
2016-05-24T12:12:19.168Z,988.81
2016-05-24T12:13:19.170Z,988.9
2016-05-24T12:14:19.189Z,988.94
2016-05-24T12:15:19.317Z,988.94
2016-05-24T12:16:19.209Z,988.94
2016-05-24T12:17:19.228Z,988.93
2016-05-24T12:18:19.278Z,988.96
2016-05-24T12:19:19.265Z,988.96
2016-05-24T12:20:19.299Z,989.01
2016-05-24T12:21:19.504Z,989.01
2016-05-24T12:22:19.555Z,988.99
2016-05-24T12:23:19.353Z,989.06
2016-05-24T12:24:19.356Z,989.02
2016-05-24T12:25:19.358Z,989.04
2016-05-24T12:26:19.378Z,989.02
2016-05-24T12:27:19.380Z,988.95
2016-05-24T12:28:19.398Z,988.85
2016-05-24T12:29:19.604Z,988.81
2016-05-24T12:30:19.419Z,988.8
2016-05-24T12:31:19.454Z,988.85
2016-05-24T12:32:19.785Z,989
2016-05-24T12:33:19.459Z,989.1
2016-05-24T12:34:19.633Z,989.15
2016-05-24T12:35:19.715Z,989.11
2016-05-24T12:36:19.514Z,988.9
2016-05-24T12:37:19.720Z,988.87
2016-05-24T12:38:19.566Z,988.86
2016-05-24T12:39:19.662Z,988.79
2016-05-24T12:40:19.571Z,988.7
2016-05-24T12:41:19.574Z,988.64
2016-05-24T12:42:19.639Z,988.66
2016-05-24T12:43:19.611Z,988.67
2016-05-24T12:44:19.628Z,988.7
2016-05-24T12:45:19.772Z,988.76
2016-05-24T12:46:19.807Z,988.83
2016-05-24T12:47:19.668Z,988.82
2016-05-24T12:48:19.702Z,988.86
2016-05-24T12:49:19.705Z,988.86
2016-05-24T12:50:19.739Z,988.87
2016-05-24T12:51:19.961Z,988.91
2016-05-24T12:52:19.761Z,988.91
2016-05-24T12:53:20.044Z,988.99
2016-05-24T12:54:19.984Z,989.01
2016-05-24T12:55:19.800Z,989.02
2016-05-24T12:56:20.239Z,989.03
2016-05-24T12:57:19.836Z,989.02
2016-05-24T12:58:19.916Z,989.06
2016-05-24T12:59:20.247Z,989.06
2016-05-24T13:00:19.891Z,989.03
2016-05-24T13:01:19.893Z,989.04
2016-05-24T13:02:20.130Z,989.09
2016-05-24T13:03:19.946Z,989.13
2016-05-24T13:04:19.917Z,989.13
2016-05-24T13:05:19.951Z,989.17
2016-05-24T13:06:19.938Z,989.16
2016-05-24T13:07:20.019Z,989.17
2016-05-24T13:08:20.006Z,989.12
2016-05-24T13:09:20.759Z,989.11
2016-05-24T13:10:19.995Z,989.08
2016-05-24T13:11:20.108Z,989.14
2016-05-24T13:12:20.017Z,989.01
2016-05-24T13:13:20.098Z,989.19
2016-05-24T13:14:21.070Z,988.96
2016-05-24T13:15:20.056Z,988.98
2016-05-24T13:16:20.106Z,989.01
2016-05-24T13:17:20.092Z,988.88
2016-05-24T13:18:20.330Z,988.87
2016-05-24T13:19:21.629Z,988.94
2016-05-24T13:20:20.179Z,988.96
2016-05-24T13:21:20.150Z,988.92
2016-05-24T13:22:20.356Z,988.95
2016-05-24T13:23:20.171Z,988.92
2016-05-24T13:25:20.224Z,988.94
2016-05-24T13:26:20.272Z,988.87
2016-05-24T13:27:20.230Z,988.83
2016-05-24T13:28:20.233Z,988.84
2016-05-24T13:29:20.250Z,988.9
2016-05-24T13:30:20.253Z,988.85
2016-05-24T13:31:20.271Z,988.84
2016-05-24T13:32:20.493Z,988.85
2016-05-24T13:33:20.339Z,988.9
2016-05-24T13:34:20.404Z,988.91
2016-05-24T13:35:20.344Z,988.92
2016-05-24T13:36:20.347Z,988.91
2016-05-24T13:37:20.349Z,988.9
2016-05-24T13:38:20.384Z,988.99
2016-05-24T13:39:21.105Z,988.99
2016-05-24T13:40:20.404Z,988.95
2016-05-24T13:41:20.407Z,988.9
2016-05-24T13:42:20.426Z,988.87
2016-05-24T13:43:20.459Z,988.85
2016-05-24T13:44:20.493Z,988.89
2016-05-24T13:45:20.573Z,988.88
2016-05-24T13:46:20.467Z,988.84
2016-05-24T13:47:20.471Z,988.88
2016-05-24T13:48:20.489Z,988.92
2016-05-24T13:49:20.506Z,988.87
2016-05-24T13:50:20.509Z,988.88
2016-05-24T13:51:20.528Z,988.91
2016-05-24T13:52:20.577Z,988.86
2016-05-24T13:53:20.564Z,988.89
2016-05-24T13:54:20.802Z,988.89
2016-05-24T13:55:20.601Z,988.92
2016-05-24T13:56:20.603Z,988.92
2016-05-24T13:57:20.606Z,988.89
2016-05-24T13:58:20.624Z,988.91
2016-05-24T13:59:20.658Z,988.89
2016-05-24T14:00:21.177Z,988.96
2016-05-24T14:01:20.867Z,988.99
2016-05-24T14:02:20.652Z,988.93
2016-05-24T14:03:20.669Z,988.98
2016-05-24T14:04:20.671Z,989